Terminal Aerodrome Forecast
Issued by NWS North Platte, NE

Home | Current Version | Previous Version | Text Only | Print | Product List | Glossary On
Versions: 1 2 3 4 5 6 7 8 9 10 11 12 13 14 15 16 17 18 19 20 21 22 23
228
FTUS43 KLBF 230520
TAFLBF
TAF
KLBF 230520Z 2306/2406 29007KT P6SM SCT080
     FM231400 32014G20KT P6SM BKN080
     FM231600 35018G29KT P6SM BKN090
     FM240100 35009KT P6SM SCT090=

USA.gov is the U.S. government's official web portal to all federal, state and local government web resources and services.